Time;durP1;ratioP1;P1;durP2;ratioP2;P2;SDS_P1;SDS_P2;PMS_P1;PMS_P2;Temp;Humidity;BMP_temperature;BMP_pressure;BME280_temperature;BME280_humidity;BME280_pressure;Samples;Min_cycle;Max_cycle;Signal;HPM_P1;HPM_P2
2023/06/30 00:01:36;;;;;;;6.80;1.80;;;;;;;-146.27;86.56;82888.44;5051350;28;20059;-69
2023/06/30 00:04:01;;;;;;;12.23;2.65;;;;;;;-146.27;86.58;82906.50;5029106;28;20045;-69
2023/06/30 00:06:27;;;;;;;4.60;1.83;;;;;;;-146.27;87.23;82892.44;5046059;28;20532;-69
2023/06/30 00:08:52;;;;;;;4.90;1.70;;;;;;;-146.27;86.59;82878.38;5047280;28;20032;-69
2023/06/30 00:11:23;;;;;;;4.13;1.40;;;;;;;-146.27;86.80;82910.53;5047948;28;20053;-70
2023/06/30 00:13:49;;;;;;;8.50;2.13;;;;;;;-146.27;87.24;82888.44;5048579;28;20056;-69
2023/06/30 00:16:14;;;;;;;7.20;2.05;;;;;;;-146.27;88.13;82898.47;5051663;28;20075;-69
2023/06/30 00:18:39;;;;;;;5.07;1.77;;;;;;;-146.27;87.59;82902.50;5046963;28;20029;-69
2023/06/30 00:21:05;;;;;;;10.18;2.33;;;;;;;-146.27;86.68;82886.41;5049173;28;20028;-69
2023/06/30 00:23:30;;;;;;;6.10;1.90;;;;;;;-146.27;87.32;82896.47;5047808;28;20029;-69
2023/06/30 00:25:55;;;;;;;6.57;1.83;;;;;;;-146.27;87.43;82888.44;5050249;28;20108;-70
2023/06/30 00:28:21;;;;;;;6.35;2.13;;;;;;;-146.27;87.62;82886.41;5049025;28;20393;-69
2023/06/30 00:30:46;;;;;;;4.63;1.77;;;;;;;-146.27;87.34;82854.28;5047878;28;20054;-69
2023/06/30 00:33:12;;;;;;;5.18;1.58;;;;;;;-146.27;87.38;82860.31;5049658;28;20496;-69
2023/06/30 00:35:37;;;;;;;5.78;1.98;;;;;;;-146.27;86.67;82840.22;5045851;28;20469;-69
2023/06/30 00:38:03;;;;;;;4.63;1.50;;;;;;;-146.27;86.78;82834.19;5033600;28;20028;-70
2023/06/30 00:40:28;;;;;;;11.88;2.10;;;;;;;-146.27;86.56;82828.16;5049771;28;20473;-69
2023/06/30 00:42:54;;;;;;;7.20;2.42;;;;;;;-146.27;87.21;82818.13;5048542;28;20478;-70
2023/06/30 00:45:19;;;;;;;10.70;2.60;;;;;;;-146.27;86.02;82775.91;5042984;28;20450;-69
2023/06/30 00:47:45;;;;;;;4.20;1.75;;;;;;;-146.27;85.78;82808.06;5029600;28;20086;-70
2023/06/30 00:50:11;;;;;;;8.65;1.88;;;;;;;-146.27;85.54;82822.13;5048267;28;20396;-70
2023/06/30 00:52:37;;;;;;;6.57;2.05;;;;;;;-146.27;85.86;82757.84;5043484;28;20039;-70
2023/06/30 00:55:03;;;;;;;7.72;2.28;;;;;;;-146.27;84.83;82739.75;5047676;28;20538;-69
2023/06/30 00:57:29;;;;;;;4.15;1.70;;;;;;;-146.27;84.55;82759.84;5049364;28;20020;-69
2023/06/30 00:59:54;;;;;;;3.88;1.88;;;;;;;-146.27;84.20;82733.72;5049232;28;20540;-69
2023/06/30 01:02:24;;;;;;;3.13;1.90;;;;;;;-146.27;84.34;82769.91;5048500;28;20033;-70
2023/06/30 01:05:11;;;;;;;6.03;2.08;;;;;;;-146.27;85.29;82745.78;5047653;28;20465;-70
2023/06/30 01:07:49;;;;;;;10.27;2.28;;;;;;;-146.27;84.95;82792.00;5047204;28;20029;-69
2023/06/30 01:10:17;;;;;;;6.95;2.13;;;;;;;-146.27;84.80;82773.91;5048138;28;20029;-70
2023/06/30 01:12:43;;;;;;;7.40;1.80;;;;;;;-146.27;85.52;82802.03;5045334;28;20087;-70
2023/06/30 01:15:10;;;;;;;2.70;1.70;;;;;;;-146.27;85.45;82852.25;5047249;28;20079;-69
2023/06/30 01:17:41;;;;;;;6.95;2.20;;;;;;;-146.27;85.61;82848.25;5047510;28;20032;-69
2023/06/30 01:20:11;;;;;;;6.25;2.15;;;;;;;-146.27;85.96;82830.16;5048524;28;20088;-69
2023/06/30 01:22:46;;;;;;;11.07;2.45;;;;;;;-146.27;85.90;82834.19;5046219;28;20035;-69
2023/06/30 01:25:20;;;;;;;4.10;2.20;;;;;;;-146.27;86.01;82820.13;5043427;28;20504;-69
2023/06/30 01:27:46;;;;;;;6.10;2.45;;;;;;;-146.27;86.05;82830.16;5047022;28;20413;-69
2023/06/30 01:30:11;;;;;;;5.30;1.88;;;;;;;-146.27;85.97;82810.06;5047269;28;20024;-69
2023/06/30 01:32:37;;;;;;;7.07;2.30;;;;;;;-146.27;85.70;82816.09;5047764;28;20497;-69
2023/06/30 01:35:03;;;;;;;4.07;2.38;;;;;;;-146.27;85.39;82798.03;5048990;28;20037;-69
2023/06/30 01:37:29;;;;;;;7.00;2.03;;;;;;;-146.27;85.66;82787.97;5048678;28;20108;-69
2023/06/30 01:39:54;;;;;;;10.75;2.35;;;;;;;-146.27;84.96;82727.72;5049177;28;20438;-70
2023/06/30 01:42:20;;;;;;;11.40;2.28;;;;;;;-146.27;84.37;82781.94;5044968;28;20044;-70
2023/06/30 01:44:47;;;;;;;14.05;2.50;;;;;;;-146.27;84.63;82796.00;5023375;28;20064;-69
2023/06/30 01:47:13;;;;;;;7.63;2.13;;;;;;;-146.27;84.93;82773.91;5049127;28;20021;-71
2023/06/30 01:49:39;;;;;;;4.82;1.98;;;;;;;-146.27;84.27;82765.88;5047820;28;20107;-69
2023/06/30 01:52:05;;;;;;;6.05;2.30;;;;;;;-146.27;84.98;82781.94;5046124;28;20116;-69
2023/06/30 01:54:30;;;;;;;7.97;1.98;;;;;;;-146.27;85.43;82834.19;5046593;28;20153;-69
2023/06/30 01:56:55;;;;;;;6.38;2.33;;;;;;;-146.27;86.08;82838.19;5045929;28;20032;-70
2023/06/30 01:59:21;;;;;;;4.57;1.52;;;;;;;-146.27;86.13;82826.16;5029415;28;20045;-69
2023/06/30 02:01:47;;;;;;;5.10;2.20;;;;;;;-146.27;86.59;82906.50;5042487;28;20036;-69
2023/06/30 02:04:12;;;;;;;7.28;2.50;;;;;;;-146.27;86.88;82908.50;5045966;28;20112;-69
2023/06/30 02:06:38;;;;;;;8.38;2.78;;;;;;;-146.27;87.08;82912.53;5048059;28;20025;-68
2023/06/30 02:09:04;;;;;;;6.20;2.65;;;;;;;-146.27;87.05;82890.44;5047489;28;20094;-69
2023/06/30 02:11:29;;;;;;;6.63;2.30;;;;;;;-146.27;87.36;82878.38;5047546;28;20021;-71
2023/06/30 02:13:54;;;;;;;3.17;2.28;;;;;;;-146.27;87.18;82938.66;5047286;28;20035;-70
2023/06/30 02:16:20;;;;;;;5.40;2.67;;;;;;;-146.27;87.14;82916.56;5044955;28;20033;-71
2023/06/30 02:18:45;;;;;;;5.07;1.80;;;;;;;-146.27;87.78;82938.66;5048275;28;20032;-70
2023/06/30 02:21:10;;;;;;;5.28;2.10;;;;;;;-146.27;87.67;82974.81;5048894;28;20024;-70
2023/06/30 02:23:36;;;;;;;5.82;1.92;;;;;;;-146.27;88.01;82974.81;5045182;28;20071;-70
2023/06/30 02:26:01;;;;;;;7.10;1.92;;;;;;;-146.27;88.73;82920.56;5049072;28;20024;-71
2023/06/30 02:28:27;;;;;;;2.78;2.08;;;;;;;-146.27;88.26;82986.88;5047388;28;20029;-71
2023/06/30 02:30:53;;;;;;;6.20;1.92;;;;;;;-146.27;88.56;82950.72;5048941;28;20392;-70
2023/06/30 02:33:19;;;;;;;3.38;1.80;;;;;;;-146.27;88.95;82986.88;5047382;28;20468;-70
2023/06/30 02:35:44;;;;;;;4.38;3.05;;;;;;;-146.27;89.35;83019.03;5045862;28;20031;-71
2023/06/30 02:38:10;;;;;;;7.43;1.83;;;;;;;-146.27;89.42;82974.81;5044785;28;20033;-70
2023/06/30 02:40:36;;;;;;;3.97;1.70;;;;;;;-146.27;88.78;83010.97;5047769;28;20468;-70
2023/06/30 02:43:02;;;;;;;4.72;1.80;;;;;;;-146.27;89.37;83004.94;5038830;28;20115;-70
2023/06/30 02:45:27;;;;;;;2.97;1.90;;;;;;;-146.27;89.81;83023.03;5043079;28;20845;-70
2023/06/30 02:47:54;;;;;;;7.78;2.22;;;;;;;-146.27;89.30;82950.72;5044927;28;20091;-70
2023/06/30 02:50:28;;;;;;;6.05;2.35;;;;;;;-146.27;89.33;82928.59;5046175;28;20023;-70
2023/06/30 02:52:54;;;;;;;5.72;2.25;;;;;;;-146.27;89.26;82990.88;5048581;28;20033;-71
2023/06/30 02:55:19;;;;;;;3.63;2.03;;;;;;;-146.27;89.25;82994.91;5047318;28;20033;-70
2023/06/30 02:57:44;;;;;;;5.05;1.90;;;;;;;-146.27;89.78;82998.94;5045767;28;20491;-70
2023/06/30 03:00:11;;;;;;;2.92;1.80;;;;;;;-146.27;89.70;82994.91;5045910;28;20072;-71
2023/06/30 03:02:36;;;;;;;5.30;2.00;;;;;;;-146.27;89.92;82928.59;5050165;28;20127;-70
2023/06/30 03:05:01;;;;;;;6.57;1.83;;;;;;;-146.27;89.85;82972.81;5051580;28;20033;-71
2023/06/30 03:07:27;;;;;;;7.10;1.80;;;;;;;-146.27;90.14;83010.97;5049561;28;20021;-70
2023/06/30 03:09:52;;;;;;;9.10;2.13;;;;;;;-146.27;89.72;82978.84;5049013;28;20063;-70
2023/06/30 03:12:18;;;;;;;7.35;2.45;;;;;;;-146.27;90.78;83006.97;5037630;28;20538;-70
2023/06/30 03:14:44;;;;;;;4.85;1.90;;;;;;;-146.27;90.53;82972.81;5049953;28;20029;-70
2023/06/30 03:17:09;;;;;;;4.57;1.88;;;;;;;-146.27;90.24;82996.91;5030757;28;20025;-70
2023/06/30 03:19:34;;;;;;;3.90;1.63;;;;;;;-146.27;89.98;83015.00;5049055;28;20031;-70
2023/06/30 03:22:00;;;;;;;8.57;1.73;;;;;;;-146.27;90.54;83025.03;5050982;28;20031;-70
2023/06/30 03:24:25;;;;;;;6.65;1.67;;;;;;;-146.27;91.03;83035.09;5049461;28;20413;-70
2023/06/30 03:26:51;;;;;;;7.18;2.33;;;;;;;-146.27;91.77;83045.13;5048975;28;20031;-69
2023/06/30 03:29:16;;;;;;;9.85;1.90;;;;;;;-146.27;90.57;83025.03;5049439;28;20538;-70
2023/06/30 03:31:41;;;;;;;5.15;1.90;;;;;;;-146.27;91.18;83010.97;5032452;28;20404;-70
2023/06/30 03:34:07;;;;;;;4.18;1.77;;;;;;;-146.27;91.29;83055.19;5050233;28;20082;-71
2023/06/30 03:36:32;;;;;;;8.10;2.20;;;;;;;-146.27;90.87;83059.19;5051258;28;20448;-70
2023/06/30 03:38:57;;;;;;;4.55;2.05;;;;;;;-146.27;90.92;83010.97;5046343;28;20033;-71
2023/06/30 03:41:23;;;;;;;3.67;1.80;;;;;;;-146.27;91.60;82996.91;5046555;28;20025;-70
2023/06/30 03:43:48;;;;;;;4.57;2.20;;;;;;;-146.27;90.90;83027.06;5050256;28;20028;-70
2023/06/30 03:46:15;;;;;;;3.58;1.90;;;;;;;-146.27;90.98;83008.97;5030766;28;20017;-70
2023/06/30 03:48:40;;;;;;;6.28;1.95;;;;;;;-146.27;91.18;83019.03;5049878;28;20025;-70
2023/06/30 03:51:06;;;;;;;7.70;2.03;;;;;;;-146.27;91.33;83035.09;5049380;28;20035;-70
2023/06/30 03:53:31;;;;;;;4.60;1.90;;;;;;;-146.27;91.71;83031.06;5050376;28;20036;-70
2023/06/30 03:55:58;;;;;;;1.55;1.45;;;;;;;-146.27;91.81;83025.03;5052005;28;20583;-70
2023/06/30 03:58:23;;;;;;;9.55;2.17;;;;;;;-146.27;91.62;83029.06;5050856;28;20485;-70
2023/06/30 04:00:49;;;;;;;9.07;2.00;;;;;;;-146.27;92.68;82988.88;5048881;28;20123;-70
2023/06/30 04:03:14;;;;;;;5.25;1.80;;;;;;;-146.27;91.41;82986.88;5049777;28;20024;-69
2023/06/30 04:05:40;;;;;;;7.65;2.10;;;;;;;-146.27;91.31;82986.88;5051109;28;20516;-70
2023/06/30 04:08:06;;;;;;;8.73;2.17;;;;;;;-146.27;92.15;82958.75;5050608;28;20029;-70
2023/06/30 04:10:31;;;;;;;8.27;1.92;;;;;;;-146.27;92.07;82930.63;5046985;28;20029;-71
2023/06/30 04:12:57;;;;;;;4.03;1.85;;;;;;;-146.27;91.29;82940.66;5048598;28;20401;-70
2023/06/30 04:15:22;;;;;;;5.43;2.00;;;;;;;-146.27;91.51;82956.75;5048770;28;20041;-70
2023/06/30 04:17:48;;;;;;;6.63;2.08;;;;;;;-146.27;91.71;82936.66;5049863;28;20392;-70
2023/06/30 04:20:15;;;;;;;5.57;1.70;;;;;;;-146.27;91.91;82950.72;5049779;28;20052;-71
2023/06/30 04:22:41;;;;;;;5.95;2.10;;;;;;;-146.27;91.97;82944.69;5047480;28;20032;-71
2023/06/30 04:25:07;;;;;;;5.80;1.65;;;;;;;-146.27;92.14;82952.72;5050639;28;20443;-70
2023/06/30 04:27:32;;;;;;;7.47;1.95;;;;;;;-146.27;92.17;82930.63;5038350;28;20067;-70
2023/06/30 04:29:58;;;;;;;7.30;2.30;;;;;;;-146.27;92.80;82884.41;5043983;28;20025;-69
2023/06/30 04:32:23;;;;;;;5.55;1.90;;;;;;;-146.27;92.97;82886.41;5043683;28;20056;-71
2023/06/30 04:34:49;;;;;;;4.18;2.25;;;;;;;-146.27;92.85;82872.34;5048411;28;20044;-70
2023/06/30 04:37:14;;;;;;;3.95;2.28;;;;;;;-146.27;92.98;82834.19;5026294;28;20025;-70
2023/06/30 04:39:42;;;;;;;8.43;2.53;;;;;;;-146.27;92.76;82814.09;5043914;28;20082;-70
2023/06/30 04:42:07;;;;;;;6.63;2.08;;;;;;;-146.27;92.93;82781.94;5040413;28;20025;-70
2023/06/30 04:44:33;;;;;;;5.72;2.28;;;;;;;-146.27;93.65;82792.00;5050983;28;20032;-70
2023/06/30 04:46:58;;;;;;;7.75;2.92;;;;;;;-146.27;93.03;82775.91;5047647;28;20071;-71
2023/06/30 04:49:24;;;;;;;10.68;2.30;;;;;;;-146.27;92.98;82781.94;5045653;28;20032;-70
2023/06/30 04:51:50;;;;;;;4.45;2.42;;;;;;;-146.27;93.19;82785.97;5048161;28;20114;-70
2023/06/30 04:54:15;;;;;;;4.80;2.35;;;;;;;-146.27;93.46;82747.78;5050955;28;20036;-71
2023/06/30 04:56:41;;;;;;;6.53;2.55;;;;;;;-146.27;93.40;82745.78;5049913;28;20025;-71
2023/06/30 04:59:06;;;;;;;6.53;2.08;;;;;;;-146.27;93.10;82719.66;5048119;28;20459;-70
2023/06/30 05:01:32;;;;;;;9.25;2.22;;;;;;;-146.27;92.84;82685.50;5028241;28;20028;-70
2023/06/30 05:03:58;;;;;;;8.68;2.40;;;;;;;-146.27;92.47;82665.44;5047285;28;20020;-70
2023/06/30 05:06:24;;;;;;;9.68;2.72;;;;;;;-146.27;92.21;82643.31;5048124;28;20032;-70
2023/06/30 05:08:50;;;;;;;7.47;2.50;;;;;;;-146.27;92.23;82609.19;5049920;28;20017;-70
2023/06/30 05:11:15;;;;;;;16.92;3.05;;;;;;;-146.27;91.76;82597.13;5050503;28;20468;-71
2023/06/30 05:13:40;;;;;;;10.63;4.30;;;;;;;-146.27;91.39;82581.06;5027936;28;20428;-70
2023/06/30 05:16:06;;;;;;;6.30;2.38;;;;;;;-146.27;91.26;82581.06;5045266;28;20017;-70
2023/06/30 05:18:31;;;;;;;13.30;2.58;;;;;;;-146.27;90.78;82548.91;5044732;28;20029;-69
2023/06/30 05:20:57;;;;;;;9.40;2.30;;;;;;;-146.27;90.53;82589.09;5047144;28;20290;-70
2023/06/30 05:23:23;;;;;;;6.40;2.20;;;;;;;-146.27;90.22;82536.84;5047082;28;20028;-70
2023/06/30 05:25:49;;;;;;;11.82;2.33;;;;;;;-146.27;89.88;82492.66;5046934;28;20436;-70
2023/06/30 05:28:14;;;;;;;7.75;2.53;;;;;;;-146.27;89.50;82540.88;5045120;28;20024;-71
2023/06/30 05:30:40;;;;;;;5.30;2.05;;;;;;;-146.27;89.08;82504.72;5040101;28;20056;-71
2023/06/30 05:33:05;;;;;;;6.05;2.30;;;;;;;-146.27;88.67;82518.78;5047702;28;20032;-71
2023/06/30 05:35:31;;;;;;;10.02;2.20;;;;;;;-146.27;88.56;82464.53;5048496;28;20052;-71
2023/06/30 05:37:56;;;;;;;5.47;2.22;;;;;;;-146.27;88.32;82456.50;5046852;28;20080;-70
2023/06/30 05:40:21;;;;;;;8.18;2.05;;;;;;;-146.27;88.22;82434.41;5047044;28;20117;-71
2023/06/30 05:42:47;;;;;;;10.35;2.55;;;;;;;-146.27;88.07;82420.34;5044929;28;20415;-69
2023/06/30 05:45:12;;;;;;;9.68;2.63;;;;;;;-146.27;87.82;82438.44;5045367;28;20021;-70
2023/06/30 05:47:37;;;;;;;8.10;2.47;;;;;;;-146.27;87.86;82396.25;5046946;28;20536;-71
2023/06/30 05:50:03;;;;;;;7.07;1.90;;;;;;;-146.27;87.53;82436.41;5046513;28;20538;-72
2023/06/30 05:52:28;;;;;;;9.70;2.15;;;;;;;-146.27;87.70;82392.22;5048470;28;20021;-71
2023/06/30 05:54:54;;;;;;;7.53;1.90;;;;;;;-146.27;87.02;82340.00;5045278;28;20348;-71
2023/06/30 05:57:19;;;;;;;8.30;2.17;;;;;;;-146.27;86.68;82378.16;5043096;28;20143;-71
2023/06/30 05:59:44;;;;;;;5.32;1.90;;;;;;;-146.27;86.83;82352.03;5045747;28;20072;-71
2023/06/30 06:02:10;;;;;;;4.22;2.25;;;;;;;-146.27;87.11;82346.03;5044934;28;20028;-70
2023/06/30 06:04:35;;;;;;;8.15;2.20;;;;;;;-146.27;86.67;82299.81;5045733;28;20025;-70
2023/06/30 06:07:05;;;;;;;7.13;2.53;;;;;;;-146.27;86.16;82275.72;5048318;28;20067;-69
2023/06/30 06:09:30;;;;;;;6.82;2.08;;;;;;;-146.27;85.96;82307.84;5048313;28;20024;-70
2023/06/30 06:11:56;;;;;;;6.95;1.90;;;;;;;-146.27;85.42;82223.47;5046974;28;20039;-71
2023/06/30 06:14:21;;;;;;;8.38;1.77;;;;;;;-146.27;84.95;82267.69;5047331;28;20020;-71
2023/06/30 06:16:46;;;;;;;4.82;1.77;;;;;;;-146.27;84.47;82259.66;5048703;28;20055;-70
2023/06/30 06:19:14;;;;;;;9.98;2.95;;;;;;;-146.27;83.88;82263.66;5048714;28;20053;-71
2023/06/30 06:21:40;;;;;;;11.90;2.58;;;;;;;-146.27;83.77;82227.50;5039676;28;20392;-70
2023/06/30 06:24:07;;;;;;;7.80;2.05;;;;;;;-146.27;83.63;82219.47;5047769;28;20029;-70
2023/06/30 06:26:32;;;;;;;5.57;1.55;;;;;;;-146.27;82.55;82195.38;5049766;28;20020;-71
2023/06/30 06:28:58;;;;;;;4.90;2.03;;;;;;;-146.27;82.20;82197.38;5048535;28;20029;-70
2023/06/30 06:31:24;;;;;;;2.45;1.45;;;;;;;-146.27;82.27;82131.09;5049793;28;20025;-67
2023/06/30 06:33:50;;;;;;;4.28;1.58;;;;;;;-146.27;80.21;82163.22;5047320;28;20068;-70
2023/06/30 06:36:15;;;;;;;6.18;1.88;;;;;;;-146.27;80.00;82123.06;5048513;28;20384;-69
2023/06/30 06:38:41;;;;;;;7.13;1.98;;;;;;;-146.27;78.14;82143.13;5051887;28;20446;-68
2023/06/30 06:41:06;;;;;;;11.02;3.15;;;;;;;-146.27;77.04;82090.91;5047868;28;20484;-68
2023/06/30 06:43:31;;;;;;;6.32;1.80;;;;;;;-146.27;75.65;82082.88;5053404;28;20024;-68
2023/06/30 06:45:57;;;;;;;6.35;1.50;;;;;;;-146.27;75.75;82022.63;5050960;28;20038;-69
2023/06/30 06:48:28;;;;;;;8.40;2.42;;;;;;;-146.27;75.65;82082.88;5052943;28;20024;-68
2023/06/30 06:50:58;;;;;;;7.28;1.60;;;;;;;-146.27;74.92;82102.97;5048044;28;20503;-67
2023/06/30 06:53:29;;;;;;;10.60;1.35;;;;;;;-146.27;74.66;82038.69;5046491;28;20025;-68
2023/06/30 06:55:56;;;;;;;4.30;1.77;;;;;;;-146.27;74.63;82002.53;5034717;28;20527;-68
2023/06/30 06:58:24;;;;;;;6.30;1.40;;;;;;;-146.27;74.83;82006.53;5051433;28;20049;-68
2023/06/30 07:00:51;;;;;;;8.18;1.65;;;;;;;-146.27;73.86;81974.41;5046374;28;20043;-69
2023/06/30 07:03:18;;;;;;;6.43;1.88;;;;;;;-146.27;73.12;81942.28;5046995;28;20028;-68
2023/06/30 07:05:45;;;;;;;5.30;2.42;;;;;;;-146.27;72.72;81946.28;5044675;28;20053;-68
2023/06/30 07:08:11;;;;;;;10.90;1.60;;;;;;;-146.27;71.81;81958.34;5048471;28;20053;-69
2023/06/30 07:10:37;;;;;;;5.38;1.65;;;;;;;-146.27;71.36;81942.28;5049868;28;20079;-71
2023/06/30 07:13:03;;;;;;;4.63;1.48;;;;;;;-146.27;69.04;81894.06;5050481;28;20488;-70
2023/06/30 07:15:29;;;;;;;5.53;1.38;;;;;;;-146.27;68.17;81890.06;5048662;28;20033;-69
2023/06/30 07:17:56;;;;;;;5.22;1.77;;;;;;;-146.27;68.27;81910.13;5046376;28;20144;-69
2023/06/30 07:20:22;;;;;;;8.27;1.58;;;;;;;-146.27;69.47;81847.88;5048766;28;20031;-69
2023/06/30 07:22:47;;;;;;;5.85;1.73;;;;;;;-146.27;67.98;81873.97;5048102;28;20025;-71
2023/06/30 07:25:13;;;;;;;3.60;1.42;;;;;;;-146.27;66.82;81867.97;5048471;28;20023;-69
2023/06/30 07:27:39;;;;;;;4.78;1.48;;;;;;;-146.27;66.03;81817.75;5045366;28;20489;-68
2023/06/30 07:30:06;;;;;;;6.05;1.77;;;;;;;-146.27;65.59;81817.75;5045388;28;20103;-69
2023/06/30 07:32:33;;;;;;;4.35;1.35;;;;;;;-146.27;66.57;81823.78;5050844;28;20057;-68
2023/06/30 07:35:00;;;;;;;8.18;1.80;;;;;;;-146.27;65.76;81837.81;5050170;28;20027;-69
2023/06/30 07:37:25;;;;;;;8.90;2.05;;;;;;;-146.27;66.70;81737.41;5050792;28;20036;-68
2023/06/30 07:39:51;;;;;;;5.78;1.73;;;;;;;-146.27;65.37;81791.63;5049031;28;20025;-70
2023/06/30 07:42:16;;;;;;;7.20;2.00;;;;;;;-146.27;65.22;81753.47;5047336;28;20060;-70
2023/06/30 07:44:41;;;;;;;6.13;1.88;;;;;;;-146.27;65.11;81703.25;5034484;28;20493;-71
2023/06/30 07:47:07;;;;;;;5.90;1.80;;;;;;;-146.27;64.81;81713.31;5050756;28;20017;-70
2023/06/30 07:49:32;;;;;;;4.75;2.05;;;;;;;-146.27;65.08;81671.13;5045923;28;20032;-70
2023/06/30 07:51:57;;;;;;;6.30;1.63;;;;;;;-146.27;64.48;81622.91;5031973;28;20022;-70
2023/06/30 07:54:23;;;;;;;6.63;1.63;;;;;;;-146.27;65.04;81604.84;5047981;28;20029;-71
2023/06/30 07:56:51;;;;;;;5.05;1.63;;;;;;;-146.27;63.63;81592.78;5049716;28;20036;-70
2023/06/30 07:59:16;;;;;;;3.13;1.33;;;;;;;-146.27;60.93;81562.66;5043091;28;20048;-71
2023/06/30 08:01:42;;;;;;;5.38;1.83;;;;;;;-146.27;60.98;81554.63;5049508;28;20036;-71
2023/06/30 08:04:07;;;;;;;5.07;1.75;;;;;;;-146.27;59.94;81572.72;5048597;28;20487;-71
2023/06/30 08:06:32;;;;;;;7.93;1.88;;;;;;;-146.27;60.66;81532.53;5050627;28;20020;-70
2023/06/30 08:08:58;;;;;;;4.95;1.77;;;;;;;-146.27;60.51;81572.72;5051755;28;20040;-71
2023/06/30 08:11:25;;;;;;;5.78;1.52;;;;;;;-146.27;60.40;81564.69;5051525;28;20029;-70
2023/06/30 08:13:51;;;;;;;4.22;1.30;;;;;;;-146.27;60.51;81556.66;5049410;28;20480;-73
2023/06/30 08:16:16;;;;;;;3.85;1.52;;;;;;;-146.27;59.45;81560.66;5050484;28;20068;-72
2023/06/30 08:18:42;;;;;;;2.92;1.60;;;;;;;-146.27;60.03;81556.66;5051395;28;20035;-71
2023/06/30 08:21:07;;;;;;;2.88;1.40;;;;;;;-146.27;59.25;81472.28;5033561;28;20071;-71
2023/06/30 08:23:33;;;;;;;3.85;1.80;;;;;;;-146.27;59.34;81500.41;5051379;28;20039;-70
2023/06/30 08:25:58;;;;;;;4.95;1.38;;;;;;;-146.27;56.33;81460.25;5051242;28;20098;-70
2023/06/30 08:28:24;;;;;;;5.43;1.58;;;;;;;-146.27;57.64;81440.16;5050495;28;20373;-70
2023/06/30 08:30:50;;;;;;;4.28;1.33;;;;;;;-146.27;57.51;81436.16;5050024;28;20345;-71
2023/06/30 08:33:15;;;;;;;6.55;1.40;;;;;;;-146.27;57.04;81480.31;5047455;28;20524;-71
2023/06/30 08:35:41;;;;;;;7.10;1.77;;;;;;;-146.27;57.07;81448.19;5047502;28;20028;-70
2023/06/30 08:38:06;;;;;;;3.13;1.20;;;;;;;-146.27;57.26;81426.09;5049605;28;20057;-71
2023/06/30 08:40:32;;;;;;;5.78;1.60;;;;;;;-146.27;56.19;81444.19;5050816;28;20505;-71
2023/06/30 08:43:05;;;;;;;5.22;1.50;;;;;;;-146.27;57.66;81412.03;5050905;28;20113;-71
2023/06/30 08:45:31;;;;;;;5.53;2.75;;;;;;;-146.27;56.87;81379.91;5049806;28;20671;-70
2023/06/30 08:48:04;;;;;;;5.35;1.40;;;;;;;-146.27;54.97;81373.88;5050699;28;20079;-72
2023/06/30 08:50:32;;;;;;;2.35;1.20;;;;;;;-146.27;55.82;81315.66;5047772;28;20032;-71
2023/06/30 08:52:58;;;;;;;3.88;1.20;;;;;;;-146.27;56.23;81311.63;5050646;28;20082;-71
2023/06/30 08:55:24;;;;;;;3.20;1.30;;;;;;;-146.27;55.54;81291.53;5050764;28;20039;-71
2023/06/30 08:57:51;;;;;;;3.05;1.38;;;;;;;-146.27;52.22;81275.47;5050192;28;20021;-73
2023/06/30 09:00:17;;;;;;;3.15;1.20;;;;;;;-146.27;49.38;81293.56;5046093;28;20028;-72
2023/06/30 09:02:43;;;;;;;4.75;1.20;;;;;;;-146.27;48.71;81311.63;5048312;28;20044;-72
2023/06/30 09:05:09;;;;;;;2.38;1.02;;;;;;;-146.27;49.52;81291.53;5049941;28;20106;-71
2023/06/30 09:07:45;;;;;;;3.90;1.20;;;;;;;-146.27;50.93;81213.22;5031290;28;20473;-70
2023/06/30 09:10:12;;;;;;;4.57;1.30;;;;;;;-146.27;51.64;81263.44;5050497;28;20269;-73
2023/06/30 09:12:39;;;;;;;2.05;1.35;;;;;;;-146.27;53.29;81251.38;5050788;28;20025;-71
2023/06/30 09:15:07;;;;;;;4.55;1.50;;;;;;;-146.27;54.39;81253.38;5050213;28;20135;-72
2023/06/30 09:17:33;;;;;;;3.92;1.48;;;;;;;-146.27;53.30;81279.50;5050184;28;20060;-72
2023/06/30 09:19:58;;;;;;;6.28;1.48;;;;;;;-146.27;51.51;81223.25;5049180;28;20029;-71
2023/06/30 09:22:25;;;;;;;3.20;1.40;;;;;;;-146.27;50.03;81229.28;5043109;28;20024;-71
2023/06/30 09:24:51;;;;;;;3.85;1.50;;;;;;;-146.27;50.37;81271.47;5049121;28;20052;-72
2023/06/30 09:27:17;;;;;;;4.40;1.58;;;;;;;-146.27;50.34;81299.59;5042819;28;20025;-72
2023/06/30 09:29:53;;;;;;;5.60;1.40;;;;;;;-146.27;50.00;81297.56;5031078;28;20060;-73
2023/06/30 09:32:24;;;;;;;4.18;1.52;;;;;;;-146.27;48.79;81267.44;5048268;28;20029;-72
2023/06/30 09:34:53;;;;;;;4.28;1.17;;;;;;;-146.27;48.00;81299.59;5046468;28;20043;-73
2023/06/30 09:37:20;;;;;;;6.32;1.60;;;;;;;-146.27;48.37;81199.16;5038325;28;20029;-73
2023/06/30 09:39:50;;;;;;;3.83;1.55;;;;;;;-146.27;48.40;81223.25;5048512;28;20082;-72
2023/06/30 09:42:16;;;;;;;5.53;1.40;;;;;;;-146.27;48.51;81241.34;5049926;28;20024;-73
2023/06/30 09:44:42;;;;;;;6.00;1.60;;;;;;;-146.27;48.99;81165.03;5046979;28;20041;-72
2023/06/30 09:47:07;;;;;;;4.93;1.60;;;;;;;-146.27;49.09;81140.94;5045944;28;20208;-72
2023/06/30 09:49:33;;;;;;;3.63;1.38;;;;;;;-146.27;49.33;81062.59;5042806;28;20415;-73
2023/06/30 09:52:01;;;;;;;4.63;1.25;;;;;;;-146.27;49.11;81159.00;5049753;28;20122;-73
2023/06/30 09:54:27;;;;;;;5.18;1.65;;;;;;;-146.27;49.21;81136.91;5048634;28;20194;-72
2023/06/30 09:57:08;;;;;;;6.63;1.52;;;;;;;-146.27;49.09;81090.72;5049693;28;20099;-72
2023/06/30 09:59:33;;;;;;;6.10;1.48;;;;;;;-146.27;48.76;81152.97;5049615;28;20118;-73
2023/06/30 10:01:59;;;;;;;5.15;1.33;;;;;;;-146.27;49.09;81159.00;5046844;28;20476;-72
2023/06/30 10:04:27;;;;;;;4.38;1.50;;;;;;;-146.27;50.03;81118.84;5047633;28;20171;-71
2023/06/30 10:06:54;;;;;;;9.32;2.70;;;;;;;-146.27;50.66;81142.94;5049699;28;20017;-72
2023/06/30 10:09:21;;;;;;;7.50;1.70;;;;;;;-146.27;50.40;81126.88;5048935;28;20024;-74
2023/06/30 10:11:52;;;;;;;5.40;1.85;;;;;;;-146.27;50.65;81098.75;5052104;28;20054;-73
2023/06/30 10:14:26;;;;;;;3.78;1.40;;;;;;;-146.27;50.20;81034.50;5053728;28;20524;-72
2023/06/30 10:16:52;;;;;;;5.25;1.38;;;;;;;-146.27;50.08;80950.16;5052278;28;20124;-71
2023/06/30 10:19:17;;;;;;;3.53;1.20;;;;;;;-146.27;48.75;80918.03;5051559;28;20155;-72
2023/06/30 10:21:43;;;;;;;5.20;1.42;;;;;;;-146.27;48.95;80990.31;5051714;28;20028;-69
2023/06/30 10:24:10;;;;;;;3.33;1.40;;;;;;;-146.27;50.05;81030.47;5048637;28;20028;-71
2023/06/30 10:26:38;;;;;;;2.95;1.60;;;;;;;-146.27;50.56;81046.53;5044963;28;20028;-70
2023/06/30 10:29:04;;;;;;;6.50;1.95;;;;;;;-146.27;51.38;81074.66;5050693;28;20407;-70
2023/06/30 10:31:31;;;;;;;3.67;1.70;;;;;;;-146.27;51.35;81146.97;5051170;28;20036;-71
2023/06/30 10:33:56;;;;;;;3.33;1.38;;;;;;;-146.27;52.05;81058.59;5052389;28;20036;-71
2023/06/30 10:36:23;;;;;;;5.18;1.83;;;;;;;-146.27;50.37;81004.38;5052565;28;20428;-70
2023/06/30 10:38:48;;;;;;;3.72;1.80;;;;;;;-146.27;49.85;81020.44;5052085;28;20028;-71
2023/06/30 10:41:22;;;;;;;5.43;1.67;;;;;;;-146.27;49.15;81094.75;5051278;28;20040;-71
2023/06/30 10:44:07;;;;;;;7.22;2.08;;;;;;;-146.27;49.18;81038.50;5052413;28;20056;-70
2023/06/30 10:46:52;;;;;;;4.57;1.70;;;;;;;-146.27;50.03;80982.28;5051759;28;20064;-71
2023/06/30 10:49:34;;;;;;;3.50;1.98;;;;;;;-146.27;48.56;80893.94;5053107;28;20033;-71
2023/06/30 10:52:07;;;;;;;5.70;1.80;;;;;;;-146.27;47.91;80753.38;5053145;28;20029;-70
2023/06/30 10:54:46;;;;;;;5.18;1.30;;;;;;;-146.27;45.53;80723.25;5052972;28;20558;-71
2023/06/30 10:57:16;;;;;;;3.85;1.70;;;;;;;-146.27;43.94;80729.28;5051420;28;20048;-70
2023/06/30 10:59:43;;;;;;;9.43;2.08;;;;;;;-146.27;43.94;80614.81;5049721;28;20051;-71
2023/06/30 11:02:10;;;;;;;9.68;1.85;;;;;;;-146.27;43.74;80592.72;5049992;28;20032;-70
2023/06/30 11:04:36;;;;;;;3.78;1.67;;;;;;;-146.27;42.94;80566.63;5032927;28;20504;-72
2023/06/30 11:07:02;;;;;;;2.78;1.50;;;;;;;-146.27;42.50;80558.59;5052326;28;20517;-71
2023/06/30 11:09:48;;;;;;;5.72;1.50;;;;;;;-146.27;42.84;80594.75;5051255;28;20016;-69
2023/06/30 11:12:18;;;;;;;3.92;1.33;;;;;;;-146.27;42.74;80689.13;5051364;28;20465;-70
2023/06/30 11:14:58;;;;;;;4.07;1.60;;;;;;;-146.27;42.99;80791.53;5040367;28;20035;-69